createdAt,value
2022-10-07T00:01:50.551Z,25.53
2022-10-07T00:04:19.839Z,32.17
2022-10-07T00:06:49.416Z,25.70
2022-10-07T00:09:18.299Z,27.80
2022-10-07T00:11:47.292Z,29.53
2022-10-07T00:14:16.032Z,24.93
2022-10-07T00:16:47.744Z,31.20
2022-10-07T00:19:16.761Z,29.13
2022-10-07T00:21:45.471Z,28.93
2022-10-07T00:24:16.186Z,28.57
2022-10-07T00:26:45.163Z,24.50
2022-10-07T00:29:13.888Z,28.13
2022-10-07T00:31:43.619Z,31.13
2022-10-07T00:34:14.424Z,25.50
2022-10-07T00:36:46.158Z,26.83
2022-10-07T00:39:21.325Z,31.07
2022-10-07T00:41:51.905Z,35.53
2022-10-07T00:44:39.977Z,28.87
2022-10-07T00:47:21.420Z,30.50
2022-10-07T00:49:55.981Z,27.00
2022-10-07T00:52:27.740Z,32.27
2022-10-07T00:55:04.134Z,32.77
2022-10-07T00:57:36.200Z,33.87
2022-10-07T01:00:09.390Z,28.37
2022-10-07T01:02:38.739Z,27.93
2022-10-07T01:05:14.428Z,28.07
2022-10-07T01:07:48.854Z,25.50
2022-10-07T01:10:20.389Z,27.93
2022-10-07T01:13:05.292Z,31.80
2022-10-07T01:15:39.612Z,30.20
2022-10-07T01:18:18.436Z,38.60
2022-10-07T01:20:56.955Z,30.17
2022-10-07T01:23:54.350Z,27.43
2022-10-07T01:26:47.506Z,33.63
2022-10-07T01:29:23.072Z,30.80
2022-10-07T01:32:01.244Z,27.63
2022-10-07T01:34:30.840Z,28.30
2022-10-07T01:37:03.372Z,32.13
2022-10-07T01:39:37.875Z,44.90
2022-10-07T01:42:12.154Z,30.53
2022-10-07T01:44:50.169Z,62.33
2022-10-07T01:47:19.345Z,46.93
2022-10-07T01:49:52.845Z,41.13
2022-10-07T01:52:44.921Z,34.27
2022-10-07T01:55:44.566Z,26.77
2022-10-07T01:58:44.248Z,30.67
2022-10-07T02:01:29.002Z,29.80
2022-10-07T02:04:19.838Z,26.40
2022-10-07T02:07:04.269Z,36.83
2022-10-07T02:09:42.881Z,34.80
2022-10-07T02:20:38.841Z,25.33
2022-10-07T02:23:11.712Z,21.40
2022-10-07T02:25:46.988Z,24.43
2022-10-07T02:28:17.850Z,29.23
2022-10-07T02:31:01.290Z,37.40
2022-10-07T02:33:33.696Z,26.17
2022-10-07T02:36:10.891Z,21.37
2022-10-07T02:38:42.895Z,37.67
2022-10-07T02:41:31.630Z,27.80
2022-10-07T02:44:21.021Z,36.07
2022-10-07T02:46:55.820Z,30.07
2022-10-07T02:49:28.268Z,48.73
2022-10-07T02:52:01.400Z,41.43
2022-10-07T02:54:38.764Z,27.67
2022-10-07T02:57:10.914Z,30.00
2022-10-07T02:59:42.231Z,29.80
2022-10-07T03:02:23.279Z,24.00
2022-10-07T03:04:52.172Z,21.43
2022-10-07T03:07:23.524Z,19.07
2022-10-07T03:09:53.956Z,27.83
2022-10-07T03:12:22.768Z,35.17
2022-10-07T03:14:51.516Z,30.63
2022-10-07T03:17:22.232Z,32.43
2022-10-07T03:19:51.912Z,34.73
2022-10-07T03:22:21.504Z,27.63
2022-10-07T03:24:55.176Z,35.50
2022-10-07T03:27:24.057Z,23.60
2022-10-07T03:29:58.651Z,25.63
2022-10-07T03:32:31.556Z,22.57
2022-10-07T03:35:03.414Z,18.80
2022-10-07T03:37:36.712Z,18.97
2022-10-07T03:40:12.139Z,18.83
2022-10-07T03:42:43.904Z,17.47
2022-10-07T03:45:12.920Z,20.83
2022-10-07T03:47:41.923Z,21.07
2022-10-07T03:50:16.026Z,20.70
2022-10-07T03:52:46.767Z,15.87
2022-10-07T03:55:23.739Z,16.07
2022-10-07T03:57:59.342Z,20.70
2022-10-07T04:00:30.822Z,20.00
2022-10-07T04:03:00.733Z,18.23
2022-10-07T04:05:30.119Z,21.57
2022-10-07T04:08:05.224Z,18.70
2022-10-07T04:10:36.555Z,20.83
2022-10-07T04:13:05.752Z,29.63
2022-10-07T04:15:34.692Z,20.87
2022-10-07T04:18:10.332Z,26.73
2022-10-07T04:20:41.155Z,26.67
2022-10-07T04:23:12.499Z,19.87
2022-10-07T04:25:46.171Z,21.33
2022-10-07T04:28:23.719Z,46.03
2022-10-07T04:30:57.731Z,66.00
2022-10-07T04:33:33.993Z,34.70
2022-10-07T04:36:06.310Z,43.73
2022-10-07T04:38:38.527Z,40.77
2022-10-07T04:41:09.906Z,48.20
2022-10-07T04:43:41.000Z,36.07
2022-10-07T04:46:15.003Z,41.90
2022-10-07T04:48:52.667Z,37.03
2022-10-07T04:51:25.657Z,37.13
2022-10-07T04:53:58.643Z,37.87
2022-10-07T04:56:35.421Z,25.80
2022-10-07T04:59:08.292Z,31.23
2022-10-07T05:01:40.127Z,21.30
2022-10-07T05:04:12.091Z,17.27
2022-10-07T05:07:03.303Z,23.10
2022-10-07T05:09:36.390Z,21.77
2022-10-07T05:12:09.211Z,19.83
2022-10-07T05:14:40.413Z,45.40
2022-10-07T05:17:11.042Z,36.93
2022-10-07T05:19:40.486Z,42.03
2022-10-07T05:22:11.110Z,42.13
2022-10-07T05:24:40.787Z,34.63
2022-10-07T05:27:13.237Z,32.57
2022-10-07T05:29:43.466Z,58.57
2022-10-07T05:32:12.981Z,34.37
2022-10-07T05:34:42.389Z,31.93
2022-10-07T05:37:13.245Z,25.93
2022-10-07T05:39:44.145Z,28.37
2022-10-07T05:42:19.588Z,23.90
2022-10-07T05:44:58.500Z,32.40
2022-10-07T05:47:28.458Z,27.57
2022-10-07T05:49:59.003Z,44.07
2022-10-07T05:52:29.601Z,46.20
2022-10-07T05:54:59.217Z,36.90
2022-10-07T05:57:30.970Z,40.93
2022-10-07T06:00:04.552Z,52.13
2022-10-07T06:02:42.927Z,41.80
2022-10-07T06:05:14.849Z,38.77
2022-10-07T06:07:44.732Z,38.23
2022-10-07T06:10:31.892Z,41.10
2022-10-07T06:13:12.312Z,40.43
2022-10-07T06:15:47.064Z,41.43
2022-10-07T06:18:17.799Z,38.57
2022-10-07T06:20:56.399Z,42.63
2022-10-07T06:23:28.181Z,42.83
2022-10-07T06:25:59.220Z,45.73
2022-10-07T06:28:36.043Z,71.10
2022-10-07T06:31:07.958Z,58.90
2022-10-07T06:33:39.099Z,55.67
2022-10-07T06:36:11.980Z,57.93
2022-10-07T06:38:47.595Z,60.13
2022-10-07T06:41:17.971Z,62.03
2022-10-07T06:43:51.060Z,88.17
2022-10-07T06:46:22.132Z,62.17
2022-10-07T06:48:54.443Z,61.47
2022-10-07T06:51:24.546Z,78.87
2022-10-07T06:53:58.745Z,55.20
2022-10-07T06:56:29.392Z,77.60
2022-10-07T06:59:03.747Z,56.30
2022-10-07T07:01:41.249Z,62.27
2022-10-07T07:04:11.290Z,63.00
2022-10-07T07:07:18.391Z,52.83
2022-10-07T07:09:48.195Z,37.77
2022-10-07T07:12:17.822Z,43.60
2022-10-07T07:14:49.610Z,47.03
2022-10-07T07:17:21.386Z,37.97
2022-10-07T07:19:51.157Z,43.90
2022-10-07T07:22:21.143Z,38.83
2022-10-07T07:24:53.789Z,38.37
2022-10-07T07:27:23.461Z,39.50
2022-10-07T07:29:54.933Z,35.57
2022-10-07T07:32:24.509Z,36.07
2022-10-07T07:34:56.227Z,33.83
2022-10-07T07:37:26.358Z,36.53
2022-10-07T07:39:59.574Z,44.10
2022-10-07T07:42:30.021Z,41.70
2022-10-07T07:45:03.656Z,40.30
2022-10-07T07:47:36.087Z,39.07
2022-10-07T07:50:07.029Z,38.67
2022-10-07T07:52:37.339Z,53.23
2022-10-07T07:55:09.582Z,43.80
2022-10-07T07:57:39.954Z,43.37
2022-10-07T08:00:16.578Z,41.27
2022-10-07T08:03:01.652Z,42.90
2022-10-07T08:05:31.397Z,39.63
2022-10-07T08:08:01.997Z,41.93
2022-10-07T08:10:32.278Z,35.67
2022-10-07T08:13:01.532Z,32.93
2022-10-07T08:15:34.416Z,31.83
2022-10-07T08:18:07.578Z,28.30
2022-10-07T08:20:38.121Z,30.70
2022-10-07T08:23:10.400Z,19.45
2022-10-07T08:25:46.916Z,22.30
2022-10-07T08:28:18.332Z,20.42
2022-10-07T08:30:56.104Z,17.67
2022-10-07T08:33:26.079Z,18.17
2022-10-07T08:36:04.787Z,13.38
2022-10-07T08:38:35.813Z,13.05
2022-10-07T08:41:19.532Z,15.98
2022-10-07T08:43:51.493Z,14.82
2022-10-07T08:46:32.069Z,16.75
2022-10-07T08:49:07.668Z,12.30
2022-10-07T08:51:45.284Z,13.60
2022-10-07T08:54:17.504Z,14.70
2022-10-07T08:56:48.555Z,10.70
2022-10-07T08:59:22.535Z,15.20
2022-10-07T09:02:18.951Z,15.00
2022-10-07T09:04:58.846Z,11.20
2022-10-07T09:07:38.594Z,12.77
2022-10-07T09:10:23.571Z,10.90
2022-10-07T09:13:02.266Z,10.48
2022-10-07T09:15:40.697Z,10.55
2022-10-07T09:18:21.546Z,10.35
2022-10-07T09:20:55.542Z,7.53
2022-10-07T09:23:47.086Z,11.82
2022-10-07T09:26:22.921Z,9.57
2022-10-07T09:28:52.401Z,6.63
2022-10-07T09:31:26.212Z,7.53
2022-10-07T09:33:57.803Z,11.30
2022-10-07T09:36:27.716Z,10.68
2022-10-07T09:38:56.714Z,10.80
2022-10-07T09:41:32.354Z,12.10
2022-10-07T09:44:06.791Z,10.45
2022-10-07T09:46:49.221Z,7.80
2022-10-07T09:49:41.731Z,11.32
2022-10-07T09:52:19.541Z,11.00
2022-10-07T09:54:50.973Z,12.30
2022-10-07T09:57:36.726Z,8.73
2022-10-07T10:00:26.485Z,8.52
2022-10-07T10:03:06.741Z,9.27
2022-10-07T10:05:40.410Z,10.70
2022-10-07T10:08:25.029Z,10.13
2022-10-07T10:10:56.588Z,11.48
2022-10-07T10:13:35.464Z,12.57
2022-10-07T10:16:07.054Z,14.60
2022-10-07T10:18:40.362Z,10.18
2022-10-07T10:21:36.331Z,10.75
2022-10-07T10:24:12.544Z,10.77
2022-10-07T10:26:57.154Z,10.50
2022-10-07T10:29:47.053Z,9.63
2022-10-07T10:32:57.704Z,10.32
2022-10-07T10:35:30.162Z,10.82
2022-10-07T10:38:23.072Z,13.80
2022-10-07T10:41:00.920Z,14.15
2022-10-07T10:43:40.562Z,9.30
2022-10-07T10:46:22.412Z,10.38
2022-10-07T10:48:56.482Z,16.48
2022-10-07T10:51:43.408Z,11.40
2022-10-07T10:54:26.980Z,11.45
2022-10-07T10:57:03.823Z,9.73
2022-10-07T10:59:58.616Z,11.40
2022-10-07T11:02:45.953Z,8.32
2022-10-07T11:05:18.659Z,10.88
2022-10-07T11:07:54.822Z,10.88
2022-10-07T11:10:30.241Z,13.05
2022-10-07T11:13:03.259Z,10.32
2022-10-07T11:15:37.750Z,11.65
2022-10-07T11:18:11.916Z,9.48
2022-10-07T11:20:48.816Z,9.85
2022-10-07T11:23:24.015Z,9.77
2022-10-07T11:25:59.250Z,7.47
2022-10-07T11:28:31.001Z,7.93
2022-10-07T11:31:10.811Z,9.52
2022-10-07T11:33:46.927Z,10.02
2022-10-07T11:36:19.943Z,8.75
2022-10-07T11:38:51.379Z,9.43
2022-10-07T11:41:27.778Z,9.85
2022-10-07T11:44:00.350Z,7.78
2022-10-07T11:46:34.516Z,13.05
2022-10-07T11:49:07.826Z,8.55
2022-10-07T11:51:41.649Z,9.65
2022-10-07T11:54:19.478Z,7.70
2022-10-07T11:56:53.669Z,7.60
2022-10-07T11:59:40.602Z,10.00
2022-10-07T12:02:47.574Z,8.02
2022-10-07T12:06:05.874Z,10.23
2022-10-07T12:08:37.778Z,10.02
2022-10-07T12:11:43.892Z,11.23
2022-10-07T12:14:45.918Z,8.63
2022-10-07T12:17:28.464Z,8.80
2022-10-07T12:20:35.163Z,10.75
2022-10-07T12:23:50.034Z,12.02
2022-10-07T12:26:50.188Z,7.78
2022-10-07T12:29:34.891Z,9.82
2022-10-07T12:32:06.613Z,9.30
2022-10-07T12:34:39.289Z,10.18
2022-10-07T12:37:38.532Z,8.13
2022-10-07T12:40:19.322Z,10.00
2022-10-07T12:42:56.069Z,11.20
2022-10-07T12:45:28.997Z,11.07
2022-10-07T12:48:02.420Z,9.73
2022-10-07T12:50:33.758Z,9.75
2022-10-07T12:53:05.032Z,7.93
2022-10-07T12:55:38.468Z,7.03
2022-10-07T12:58:36.565Z,9.48
2022-10-07T13:01:18.774Z,9.38
2022-10-07T13:04:20.281Z,12.82
2022-10-07T13:07:30.830Z,9.95
2022-10-07T13:10:25.473Z,8.98
2022-10-07T13:12:57.764Z,9.75
2022-10-07T13:15:33.320Z,7.68
2022-10-07T13:18:11.070Z,10.00
2022-10-07T13:21:16.814Z,12.73
2022-10-07T13:23:53.196Z,9.18
2022-10-07T13:26:24.064Z,7.85
2022-10-07T13:28:56.276Z,11.70
2022-10-07T13:31:28.421Z,9.73
2022-10-07T13:33:59.950Z,10.55
2022-10-07T13:36:33.003Z,9.93
2022-10-07T13:39:14.626Z,9.48
2022-10-07T13:41:47.593Z,17.67
2022-10-07T13:44:19.966Z,10.57
2022-10-07T13:46:59.223Z,13.90
2022-10-07T13:49:32.078Z,8.73
2022-10-07T13:52:06.937Z,9.95
2022-10-07T13:54:36.407Z,13.20
2022-10-07T13:57:11.642Z,9.77
2022-10-07T13:59:42.228Z,10.55
2022-10-07T14:02:16.136Z,12.23
2022-10-07T14:04:54.806Z,8.63
2022-10-07T14:07:29.619Z,10.98
2022-10-07T14:10:10.263Z,10.52
2022-10-07T14:12:43.074Z,10.30
2022-10-07T14:15:17.470Z,11.23
2022-10-07T14:17:49.087Z,10.68
2022-10-07T14:20:23.610Z,11.15
2022-10-07T14:22:56.595Z,9.15
2022-10-07T14:25:28.874Z,13.60
2022-10-07T14:28:19.484Z,11.07
2022-10-07T14:31:26.595Z,8.98
2022-10-07T14:34:18.042Z,10.27
2022-10-07T14:37:03.740Z,10.80
2022-10-07T14:39:38.213Z,9.15
2022-10-07T14:42:12.403Z,11.13
2022-10-07T14:44:44.448Z,9.48
2022-10-07T14:47:15.973Z,10.70
2022-10-07T14:49:45.403Z,13.65
2022-10-07T14:52:19.966Z,9.50
2022-10-07T14:54:58.557Z,10.48
2022-10-07T14:57:28.900Z,9.85
2022-10-07T14:59:58.956Z,12.57
2022-10-07T15:02:29.605Z,14.25
2022-10-07T15:04:58.936Z,14.02
2022-10-07T15:07:28.345Z,13.55
2022-10-07T15:09:59.469Z,15.25
2022-10-07T15:12:29.670Z,13.80
2022-10-07T15:15:02.524Z,9.52
2022-10-07T15:17:35.542Z,10.07
2022-10-07T15:20:13.468Z,10.10
2022-10-07T15:22:43.959Z,13.52
2022-10-07T15:25:16.816Z,13.13
2022-10-07T15:27:47.646Z,9.02
2022-10-07T15:30:17.281Z,11.60
2022-10-07T15:32:46.822Z,12.73
2022-10-07T15:35:16.781Z,13.80
2022-10-07T15:37:46.415Z,11.70
2022-10-07T15:40:17.176Z,13.75
2022-10-07T15:42:47.409Z,14.27
2022-10-07T15:45:19.860Z,13.52
2022-10-07T15:47:51.657Z,16.55
2022-10-07T15:50:21.400Z,11.63
2022-10-07T15:52:51.042Z,10.30
2022-10-07T15:55:22.339Z,16.30
2022-10-07T15:57:52.079Z,19.48
2022-10-07T16:00:22.201Z,16.83
2022-10-07T16:02:52.297Z,19.83
2022-10-07T16:05:22.147Z,37.67
2022-10-07T16:07:53.792Z,34.75
2022-10-07T16:10:27.193Z,35.53
2022-10-07T16:12:57.447Z,29.02
2022-10-07T16:15:27.235Z,22.45
2022-10-07T16:17:58.764Z,27.48
2022-10-07T16:20:28.531Z,27.05
2022-10-07T16:22:58.117Z,33.67
2022-10-07T16:25:30.416Z,31.17
2022-10-07T16:28:17.917Z,28.85
2022-10-07T16:30:52.095Z,22.88
2022-10-07T16:33:21.743Z,16.55
2022-10-07T16:35:50.899Z,19.92
2022-10-07T16:38:23.523Z,13.30
2022-10-07T16:40:58.030Z,20.75
2022-10-07T16:43:28.474Z,26.60
2022-10-07T16:45:58.258Z,31.17
2022-10-07T16:48:27.835Z,20.07
2022-10-07T16:50:58.069Z,19.97
2022-10-07T16:53:28.530Z,20.87
2022-10-07T16:56:05.404Z,13.37
2022-10-07T16:58:35.074Z,18.93
2022-10-07T17:01:05.234Z,25.23
2022-10-07T17:03:36.716Z,23.50
2022-10-07T17:06:08.384Z,23.70
2022-10-07T17:08:42.818Z,31.53
2022-10-07T17:11:29.401Z,32.07
2022-10-07T17:14:01.048Z,30.53
2022-10-07T17:16:33.409Z,24.57
2022-10-07T17:19:04.724Z,28.67
2022-10-07T17:21:36.406Z,34.50
2022-10-07T17:24:06.486Z,26.87
2022-10-07T17:26:39.355Z,27.87
2022-10-07T17:29:10.363Z,28.43
2022-10-07T17:31:43.647Z,46.93
2022-10-07T17:34:14.467Z,48.73
2022-10-07T17:36:47.386Z,43.13
2022-10-07T17:39:16.860Z,33.43
2022-10-07T17:41:49.310Z,31.17
2022-10-07T17:44:20.139Z,37.47
2022-10-07T17:46:52.688Z,27.27
2022-10-07T17:49:23.420Z,30.90
2022-10-07T17:51:53.179Z,23.70
2022-10-07T17:54:25.512Z,37.30
2022-10-07T17:56:57.182Z,41.47
2022-10-07T17:59:27.429Z,48.70
2022-10-07T18:01:59.662Z,50.10
2022-10-07T18:04:30.737Z,37.97
2022-10-07T18:07:01.790Z,32.70
2022-10-07T18:09:31.461Z,32.63
2022-10-07T18:12:20.384Z,44.33
2022-10-07T18:15:06.894Z,42.23
2022-10-07T18:17:37.269Z,46.83
2022-10-07T18:20:14.254Z,49.60
2022-10-07T18:22:45.900Z,52.13
2022-10-07T18:25:15.757Z,50.80
2022-10-07T18:27:48.375Z,48.13
2022-10-07T18:30:19.446Z,43.53
2022-10-07T18:32:49.304Z,51.87
2022-10-07T18:35:19.244Z,43.10
2022-10-07T18:37:50.076Z,40.87
2022-10-07T18:40:20.125Z,39.03
2022-10-07T18:42:52.153Z,46.23
2022-10-07T18:45:23.935Z,40.47
2022-10-07T18:47:54.129Z,43.83
2022-10-07T18:50:26.091Z,42.27
2022-10-07T18:53:02.890Z,42.97
2022-10-07T18:55:32.873Z,45.87
2022-10-07T18:58:05.028Z,45.93
2022-10-07T19:00:35.368Z,42.23
2022-10-07T19:03:05.232Z,43.70
2022-10-07T19:05:39.128Z,42.03
2022-10-07T19:08:10.306Z,39.83
2022-10-07T19:10:42.296Z,43.10
2022-10-07T19:13:32.682Z,40.13
2022-10-07T19:16:05.390Z,39.70
2022-10-07T19:18:39.197Z,39.73
2022-10-07T19:21:09.505Z,40.77
2022-10-07T19:23:39.168Z,39.67
2022-10-07T19:26:15.638Z,46.77
2022-10-07T19:28:50.677Z,37.13
2022-10-07T19:31:23.841Z,39.23
2022-10-07T19:33:58.204Z,34.57
2022-10-07T19:36:29.487Z,37.23
2022-10-07T19:39:01.948Z,36.40
2022-10-07T19:41:35.336Z,40.00
2022-10-07T19:44:07.884Z,30.23
2022-10-07T19:46:38.949Z,29.80
2022-10-07T19:49:09.618Z,31.83
2022-10-07T19:51:40.778Z,30.20
2022-10-07T19:54:11.198Z,29.73
2022-10-07T19:56:42.819Z,26.17
2022-10-07T19:59:16.729Z,26.87
2022-10-07T20:01:50.495Z,28.53
2022-10-07T20:04:22.918Z,34.30
2022-10-07T20:06:52.685Z,30.90
2022-10-07T20:09:22.874Z,26.47
2022-10-07T20:11:52.638Z,30.20
2022-10-07T20:14:24.646Z,25.93
2022-10-07T20:16:56.297Z,21.53
2022-10-07T20:19:26.070Z,27.37
2022-10-07T20:21:56.447Z,24.73
2022-10-07T20:24:27.259Z,24.47
2022-10-07T20:26:56.490Z,26.93
2022-10-07T20:29:28.355Z,21.53
2022-10-07T20:31:58.579Z,22.97
2022-10-07T20:34:29.730Z,21.87
2022-10-07T20:36:59.093Z,22.53
2022-10-07T20:39:45.665Z,21.60
2022-10-07T20:42:26.162Z,22.50
2022-10-07T20:44:59.334Z,20.67
2022-10-07T20:47:32.023Z,20.23
2022-10-07T20:50:03.043Z,18.47
2022-10-07T20:52:34.145Z,20.57
2022-10-07T20:55:04.162Z,22.93
2022-10-07T20:57:47.345Z,19.20
2022-10-07T21:00:18.843Z,20.93
2022-10-07T21:02:48.919Z,20.77
2022-10-07T21:05:18.777Z,20.37
2022-10-07T21:07:53.820Z,18.73
2022-10-07T21:10:24.108Z,17.40
2022-10-07T21:12:56.830Z,23.63
2022-10-07T21:15:28.073Z,20.97
2022-10-07T21:17:58.408Z,19.27
2022-10-07T21:20:27.919Z,16.93
2022-10-07T21:22:58.013Z,17.20
2022-10-07T21:25:27.468Z,23.73
2022-10-07T21:27:57.334Z,16.60
2022-10-07T21:30:29.942Z,15.10
2022-10-07T21:32:59.959Z,22.33
2022-10-07T21:35:30.579Z,19.57
2022-10-07T21:38:00.629Z,16.30
2022-10-07T21:40:31.998Z,16.43
2022-10-07T21:43:01.939Z,19.60
2022-10-07T21:45:33.006Z,15.70
2022-10-07T21:48:02.776Z,16.17
2022-10-07T21:50:32.574Z,15.77
2022-10-07T21:53:01.925Z,17.23
2022-10-07T21:55:31.744Z,16.57
2022-10-07T21:58:02.135Z,15.90
2022-10-07T22:00:36.663Z,16.57
2022-10-07T22:03:06.426Z,17.77
2022-10-07T22:05:36.507Z,16.90
2022-10-07T22:08:21.975Z,16.50
2022-10-07T22:10:51.476Z,13.93
2022-10-07T22:13:21.499Z,17.17
2022-10-07T22:15:52.935Z,16.73
2022-10-07T22:18:22.611Z,15.77
2022-10-07T22:20:52.266Z,14.37
2022-10-07T22:23:21.999Z,14.17
2022-10-07T22:25:52.107Z,22.13
2022-10-07T22:28:22.003Z,15.90
2022-10-07T22:30:53.662Z,16.00
2022-10-07T22:33:23.639Z,20.33
2022-10-07T22:35:52.088Z,16.17
2022-10-07T22:38:21.985Z,16.50
2022-10-07T22:40:52.662Z,16.40
2022-10-07T22:43:22.875Z,17.30
2022-10-07T22:46:02.407Z,19.13
2022-10-07T22:48:32.114Z,18.67
2022-10-07T22:51:07.555Z,20.27
2022-10-07T22:53:43.963Z,18.90
2022-10-07T22:56:15.342Z,18.97
2022-10-07T22:58:46.778Z,20.10
2022-10-07T23:01:18.639Z,20.93
2022-10-07T23:03:47.997Z,20.33
2022-10-07T23:06:19.086Z,18.13
2022-10-07T23:08:49.502Z,19.27
2022-10-07T23:11:21.138Z,17.23
2022-10-07T23:13:51.477Z,18.37
2022-10-07T23:16:23.981Z,20.63
2022-10-07T23:18:54.497Z,22.00
2022-10-07T23:21:25.826Z,25.23
2022-10-07T23:24:06.826Z,26.77
2022-10-07T23:26:38.046Z,19.63
2022-10-07T23:29:08.958Z,27.17
2022-10-07T23:31:40.844Z,22.23
2022-10-07T23:34:12.220Z,24.63
2022-10-07T23:36:41.665Z,19.43
2022-10-07T23:39:11.142Z,20.27
2022-10-07T23:41:40.281Z,20.63
2022-10-07T23:44:09.721Z,19.43
2022-10-07T23:46:41.397Z,23.07
2022-10-07T23:49:11.625Z,18.53
2022-10-07T23:51:41.204Z,21.97
2022-10-07T23:54:11.377Z,23.03
2022-10-07T23:56:40.488Z,20.10
2022-10-07T23:59:09.852Z,18.37
